Time;durP1;ratioP1;P1;durP2;ratioP2;P2;SDS_P1;SDS_P2;PMS_P1;PMS_P2;Temp;Humidity;BMP_temperature;BMP_pressure;BME280_temperature;BME280_humidity;BME280_pressure;Samples;Min_cycle;Max_cycle;Signal;HPM_P1;HPM_P2
2023/05/06 00:01:33;;;;;;;21.10;5.33;;;21.30;54.70;;;;;;5110371;28;20272;-94
2023/05/06 00:04:00;;;;;;;17.40;4.83;;;21.30;54.70;;;;;;5120190;28;20204;-95
2023/05/06 00:06:29;;;;;;;23.53;5.53;;;21.40;54.80;;;;;;5113324;27;20723;-93
2023/05/06 00:08:56;;;;;;;26.00;5.87;;;21.30;54.70;;;;;;5111593;28;20254;-95
2023/05/06 00:11:25;;;;;;;30.47;5.57;;;21.30;54.70;;;;;;5118648;28;20206;-95
2023/05/06 00:13:52;;;;;;;26.07;5.60;;;21.30;54.70;;;;;;5114754;28;20205;-96
2023/05/06 00:16:20;;;;;;;34.20;6.13;;;21.30;54.70;;;;;;5113480;28;20220;-96
2023/05/06 00:21:12;;;;;;;25.03;5.10;;;21.20;54.70;;;;;;5097370;22;20242;-96
2023/05/06 00:23:39;;;;;;;35.27;6.50;;;21.20;54.80;;;;;;5090601;28;20315;-96
2023/05/06 00:26:07;;;;;;;28.93;5.80;;;21.20;54.70;;;;;;5081594;28;20723;-96
2023/05/06 00:28:35;;;;;;;38.20;6.43;;;21.10;54.60;;;;;;5070748;28;20203;-96
2023/05/06 00:31:08;;;;;;;37.37;6.33;;;21.20;54.70;;;;;;5074026;28;20639;-96
2023/05/06 00:33:37;;;;;;;34.57;6.30;;;21.20;54.70;;;;;;5064337;28;20198;-95
2023/05/06 00:36:05;;;;;;;26.17;5.53;;;21.20;54.70;;;;;;5054665;28;20223;-96
2023/05/06 00:38:36;;;;;;;37.13;6.70;;;21.10;54.70;;;;;;5071231;28;20219;-96
2023/05/06 00:41:03;;;;;;;14.90;4.33;;;21.10;54.60;;;;;;5073709;28;20238;-96
2023/05/06 00:43:30;;;;;;;24.10;4.90;;;21.10;54.70;;;;;;5069918;28;20198;-94
2023/05/06 00:45:59;;;;;;;33.17;6.00;;;21.10;54.70;;;;;;5069738;28;20648;-96
2023/05/06 00:48:29;;;;;;;34.43;6.47;;;21.10;54.70;;;;;;5068159;28;20195;-96
2023/05/06 00:50:57;;;;;;;35.43;5.97;;;21.10;54.70;;;;;;5069893;28;20230;-95
2023/05/06 00:53:24;;;;;;;17.73;4.90;;;21.00;54.60;;;;;;5067811;28;20203;-96
2023/05/06 00:55:54;;;;;;;36.43;6.40;;;21.00;54.60;;;;;;5069151;28;20211;-96
2023/05/06 00:58:21;;;;;;;27.80;5.43;;;21.00;54.60;;;;;;5082502;28;20196;-96
2023/05/06 01:00:50;;;;;;;24.80;5.53;;;21.00;54.60;;;;;;5094568;28;20252;-96
2023/05/06 01:03:36;;;;;;;28.87;5.67;;;21.00;54.60;;;;;;5082036;28;20206;-96
2023/05/06 01:06:12;;;;;;;14.27;4.80;;;20.90;54.60;;;;;;5078230;28;20213;-96
2023/05/06 01:08:47;;;;;;;11.33;4.07;;;20.90;54.60;;;;;;5073999;28;20274;-95
2023/05/06 01:11:23;;;;;;;22.47;5.40;;;20.90;54.60;;;;;;5075800;28;20233;-96
2023/05/06 01:13:59;;;;;;;12.03;4.43;;;20.90;54.60;;;;;;5072456;28;20222;-95
2023/05/06 01:16:30;;;;;;;24.27;5.13;;;20.90;54.60;;;;;;5068659;28;20211;-95
2023/05/06 01:19:00;;;;;;;23.03;5.10;;;20.90;54.60;;;;;;5069777;28;20289;-95
2023/05/06 01:21:33;;;;;;;28.23;5.60;;;20.90;54.60;;;;;;5069728;28;20316;-95
2023/05/06 01:24:03;;;;;;;42.17;6.87;;;20.80;54.50;;;;;;5069441;28;20287;-96
2023/05/06 01:26:30;;;;;;;31.13;6.07;;;20.90;54.60;;;;;;5063638;28;20284;-96
2023/05/06 01:28:58;;;;;;;39.13;6.77;;;20.80;54.50;;;;;;5070582;28;20207;-96
2023/05/06 01:31:29;;;;;;;40.80;6.83;;;20.80;54.60;;;;;;5069038;28;20209;-95
2023/05/06 01:34:06;;;;;;;30.37;6.07;;;20.80;54.60;;;;;;5069368;28;20724;-96
2023/05/06 01:36:42;;;;;;;32.57;6.37;;;20.80;54.60;;;;;;5069080;28;20223;-96
2023/05/06 01:39:17;;;;;;;23.53;5.23;;;20.70;54.50;;;;;;5069535;28;20674;-96
2023/05/06 01:41:51;;;;;;;30.53;5.97;;;20.70;54.50;;;;;;5068955;28;20255;-96
2023/05/06 01:44:22;;;;;;;29.03;6.23;;;20.70;54.50;;;;;;5066794;28;20217;-95
2023/05/06 01:46:51;;;;;;;43.07;7.23;;;20.70;54.50;;;;;;5069014;28;20215;-95
2023/05/06 01:49:20;;;;;;;30.03;6.13;;;20.70;54.60;;;;;;5070385;28;20195;-96
2023/05/06 01:51:52;;;;;;;32.70;6.47;;;20.70;54.50;;;;;;5069825;28;20235;-96
2023/05/06 01:54:21;;;;;;;33.60;6.70;;;20.70;54.50;;;;;;5070563;28;20211;-96
2023/05/06 01:56:48;;;;;;;26.40;6.07;;;20.70;54.60;;;;;;5069095;28;20210;-96
2023/05/06 01:59:15;;;;;;;36.57;6.50;;;20.70;54.60;;;;;;5072422;28;20245;-96
2023/05/06 02:01:45;;;;;;;31.93;5.93;;;20.60;54.50;;;;;;5073673;28;20227;-96
2023/05/06 02:04:20;;;;;;;25.60;4.97;;;20.60;54.50;;;;;;5069639;28;20746;-96
2023/05/06 02:06:48;;;;;;;25.30;5.67;;;20.60;54.50;;;;;;5072415;28;20737;-96
2023/05/06 02:09:15;;;;;;;33.93;6.43;;;20.60;54.60;;;;;;5071943;28;20203;-96
2023/05/06 02:11:43;;;;;;;17.07;5.10;;;20.60;54.50;;;;;;5074361;28;20621;-96
2023/05/06 02:14:10;;;;;;;38.63;6.70;;;20.50;54.40;;;;;;5074613;28;20205;-96
2023/05/06 02:16:38;;;;;;;29.63;6.00;;;20.50;54.40;;;;;;5074627;28;20214;-95
2023/05/06 02:19:13;;;;;;;21.73;5.30;;;20.50;54.50;;;;;;5073656;28;20211;-95
2023/05/06 02:21:42;;;;;;;24.50;5.73;;;20.50;54.50;;;;;;5069095;28;20250;-96
2023/05/06 02:24:12;;;;;;;32.20;6.70;;;20.50;54.50;;;;;;5072349;28;20238;-96
2023/05/06 02:26:39;;;;;;;32.43;5.93;;;20.50;54.50;;;;;;5071646;28;20250;-94
2023/05/06 02:29:08;;;;;;;30.03;6.20;;;20.50;54.50;;;;;;5068674;28;20211;-95
2023/05/06 02:31:35;;;;;;;25.93;6.13;;;20.40;54.40;;;;;;5068046;28;20228;-95
2023/05/06 02:34:02;;;;;;;30.80;6.37;;;20.40;54.40;;;;;;5068179;28;20212;-95
2023/05/06 02:36:29;;;;;;;41.57;6.77;;;20.40;54.40;;;;;;5066857;28;20204;-96
2023/05/06 02:38:56;;;;;;;41.73;7.10;;;20.40;54.40;;;;;;5070552;28;20674;-95
2023/05/06 02:41:23;;;;;;;27.70;5.83;;;20.50;54.50;;;;;;5072479;28;20265;-96
2023/05/06 02:44:04;;;;;;;28.70;6.10;;;20.40;54.50;;;;;;5071692;28;20269;-95
2023/05/06 02:46:32;;;;;;;29.67;6.10;;;20.40;54.50;;;;;;5070403;28;20207;-95
2023/05/06 02:49:05;;;;;;;38.00;6.80;;;20.40;54.50;;;;;;5071909;28;20210;-96
2023/05/06 02:51:35;;;;;;;41.90;7.13;;;20.40;54.40;;;;;;5071101;28;20203;-95
2023/05/06 02:54:02;;;;;;;22.00;5.50;;;20.30;54.40;;;;;;5070880;28;20214;-95
2023/05/06 02:56:30;;;;;;;25.50;5.57;;;20.30;54.40;;;;;;5069600;28;20636;-94
2023/05/06 02:58:57;;;;;;;26.10;5.93;;;20.30;54.40;;;;;;5071892;28;20203;-96
2023/05/06 03:01:25;;;;;;;20.63;5.37;;;20.30;54.40;;;;;;5071411;28;20239;-95
2023/05/06 03:03:56;;;;;;;33.10;6.43;;;20.30;54.40;;;;;;5071641;28;20245;-95
2023/05/06 03:06:23;;;;;;;20.47;5.30;;;20.30;54.40;;;;;;5071153;28;20972;-95
2023/05/06 03:08:50;;;;;;;22.17;5.73;;;20.20;54.40;;;;;;5073073;28;20268;-96
2023/05/06 03:11:20;;;;;;;30.20;6.03;;;20.20;54.40;;;;;;5071502;28;20200;-94
2023/05/06 03:13:47;;;;;;;34.03;6.93;;;20.20;54.40;;;;;;5068080;28;20200;-94
2023/05/06 03:16:14;;;;;;;25.73;5.70;;;20.20;54.40;;;;;;5071903;28;20207;-96
2023/05/06 03:18:41;;;;;;;26.77;6.23;;;20.20;54.60;;;;;;5073290;28;20200;-96
2023/05/06 03:21:11;;;;;;;26.07;5.87;;;20.20;54.40;;;;;;5070371;28;20269;-95
2023/05/06 03:23:38;;;;;;;38.60;7.07;;;20.20;54.40;;;;;;5071158;28;20247;-95
2023/05/06 03:26:05;;;;;;;31.27;6.30;;;20.10;54.40;;;;;;5071183;28;20695;-95
2023/05/06 03:28:32;;;;;;;35.43;6.40;;;20.10;54.40;;;;;;5070673;28;20272;-95
2023/05/06 03:31:00;;;;;;;28.57;6.27;;;20.10;54.30;;;;;;5070563;28;20227;-96
2023/05/06 03:33:29;;;;;;;32.43;6.33;;;20.10;54.40;;;;;;5073051;28;20711;-96
2023/05/06 03:35:56;;;;;;;24.00;5.70;;;20.10;54.40;;;;;;5073940;28;20207;-96
2023/05/06 03:38:25;;;;;;;23.07;5.30;;;20.10;54.40;;;;;;5074197;28;20211;-96
2023/05/06 03:40:55;;;;;;;19.20;5.27;;;20.10;54.40;;;;;;5074267;28;20203;-96
2023/05/06 03:43:22;;;;;;;25.87;6.13;;;20.00;54.30;;;;;;5071464;28;20645;-96
2023/05/06 03:45:49;;;;;;;21.97;5.53;;;20.00;54.30;;;;;;5071833;28;20203;-96
2023/05/06 03:48:20;;;;;;;18.60;5.10;;;20.00;54.30;;;;;;5071995;28;20317;-96
2023/05/06 03:50:47;;;;;;;30.40;6.10;;;20.00;54.40;;;;;;5074428;28;20241;-96
2023/05/06 03:53:14;;;;;;;30.13;6.30;;;20.00;54.40;;;;;;5076607;28;20207;-96
2023/05/06 03:55:43;;;;;;;68.27;9.30;;;20.10;54.40;;;;;;5070206;28;20594;-96
2023/05/06 03:58:10;;;;;;;40.03;7.30;;;20.00;54.40;;;;;;5067609;28;20207;-94
2023/05/06 04:00:37;;;;;;;40.63;7.27;;;19.90;54.30;;;;;;5068586;28;20204;-94
2023/05/06 04:03:04;;;;;;;31.13;6.77;;;19.90;54.30;;;;;;5067870;28;20227;-95
2023/05/06 04:05:31;;;;;;;29.43;6.67;;;19.90;54.30;;;;;;5067433;28;20306;-94
2023/05/06 04:07:59;;;;;;;33.67;6.83;;;19.90;54.30;;;;;;5065497;28;20199;-96
2023/05/06 04:10:26;;;;;;;29.63;6.27;;;19.90;54.30;;;;;;5068098;28;20208;-96
2023/05/06 04:13:00;;;;;;;27.57;6.17;;;19.90;54.30;;;;;;5070132;28;20195;-96
2023/05/06 04:15:33;;;;;;;40.80;7.13;;;19.90;54.30;;;;;;5070617;28;20211;-96
2023/05/06 04:18:02;;;;;;;20.80;5.53;;;19.80;54.20;;;;;;5071274;28;20299;-96
2023/05/06 04:20:29;;;;;;;27.60;5.77;;;19.80;54.30;;;;;;5071013;28;20211;-96
2023/05/06 04:22:56;;;;;;;21.43;5.43;;;19.80;54.30;;;;;;5071217;28;20273;-96
2023/05/06 04:25:23;;;;;;;27.07;5.97;;;19.80;54.30;;;;;;5068816;28;20203;-96
2023/05/06 04:27:51;;;;;;;29.07;5.97;;;19.70;54.20;;;;;;5068806;28;20310;-96
2023/05/06 04:30:19;;;;;;;36.17;6.60;;;19.80;54.30;;;;;;5068870;28;20204;-96
2023/05/06 04:32:56;;;;;;;26.03;6.00;;;19.70;54.20;;;;;;5070428;28;20229;-96
2023/05/06 04:35:23;;;;;;;30.23;6.40;;;19.80;54.30;;;;;;5069973;28;20192;-96
2023/05/06 04:37:50;;;;;;;28.80;6.23;;;19.70;54.20;;;;;;5069681;28;20747;-96
2023/05/06 04:40:18;;;;;;;29.83;6.37;;;19.70;54.20;;;;;;5070656;28;20199;-96
2023/05/06 04:42:45;;;;;;;20.57;5.63;;;19.70;54.20;;;;;;5067790;28;20223;-96
2023/05/06 04:45:17;;;;;;;48.80;8.23;;;19.70;54.30;;;;;;5076817;28;20184;-95
2023/05/06 04:47:54;;;;;;;23.70;5.67;;;19.70;54.30;;;;;;5084031;28;20203;-95
2023/05/06 04:50:22;;;;;;;30.27;6.80;;;19.60;54.20;;;;;;5084055;28;20210;-95
2023/05/06 04:52:51;;;;;;;26.87;6.20;;;19.60;54.20;;;;;;5079290;28;20207;-96
2023/05/06 04:55:18;;;;;;;22.80;5.30;;;19.60;54.30;;;;;;5079436;28;20210;-96
2023/05/06 04:57:51;;;;;;;21.23;5.90;;;19.60;54.20;;;;;;5086598;28;20211;-96
2023/05/06 05:00:25;;;;;;;13.37;4.83;;;19.60;54.30;;;;;;5087549;28;20218;-95
2023/05/06 05:03:51;;;;;;;5.17;3.97;;;19.60;54.30;;;;;;5088762;28;20211;-96
2023/05/06 05:17:31;;;;;;;13.17;5.37;;;19.50;54.30;;;;;;5095987;28;20644;-96
2023/05/06 05:23:35;;;;;;;16.83;4.87;;;19.50;54.30;;;;;;5030102;28;20218;-93
2023/05/06 05:29:59;;;;;;;18.23;5.53;;;19.40;54.30;;;;;;5033582;28;20209;-95
2023/05/06 05:33:07;;;;;;;22.33;5.40;;;19.40;54.30;;;;;;5006062;28;20189;-95
2023/05/06 05:39:09;;;;;;;15.20;5.23;;;19.40;54.50;;;;;;5030646;28;20201;-95
2023/05/06 05:42:07;;;;;;;14.93;5.33;;;19.30;55.00;;;;;;5034205;28;20205;-95
2023/05/06 05:44:59;;;;;;;21.27;5.53;;;19.30;54.40;;;;;;5034435;28;20185;-95
2023/05/06 05:47:53;;;;;;;26.80;6.37;;;19.30;54.50;;;;;;5032065;28;20216;-94
2023/05/06 05:53:10;;;;;;;18.87;5.43;;;19.30;54.50;;;;;;5039610;28;20186;-95
2023/05/06 05:56:07;;;;;;;18.03;5.13;;;19.30;54.50;;;;;;5096269;28;20209;-95
2023/05/06 05:58:37;;;;;;;11.80;4.93;;;19.30;54.50;;;;;;5044516;28;20200;-94
2023/05/06 06:01:16;;;;;;;10.23;4.80;;;19.30;54.50;;;;;;5077487;28;20187;-94
2023/05/06 06:04:28;;;;;;;9.87;4.77;;;19.30;54.60;;;;;;5095267;28;20280;-95
2023/05/06 06:10:30;;;;;;;13.47;5.37;;;19.30;54.60;;;;;;5090760;28;20202;-94
2023/05/06 06:13:28;;;;;;;9.33;4.77;;;19.30;54.60;;;;;;5098600;28;20187;-94
2023/05/06 06:16:11;;;;;;;17.73;5.43;;;19.30;54.60;;;;;;5064948;28;20213;-95
2023/05/06 06:19:23;;;;;;;19.50;5.50;;;19.30;54.60;;;;;;5097499;28;20210;-94
2023/05/06 06:22:26;;;;;;;16.53;5.43;;;19.30;54.70;;;;;;5090094;28;20242;-95
2023/05/06 06:28:19;;;;;;;19.23;5.53;;;19.30;54.70;;;;;;5140720;22;20239;-96
2023/05/06 06:33:42;;;;;;;10.17;4.63;;;19.30;54.70;;;;;;5098643;28;20180;-96
2023/05/06 06:36:21;;;;;;;24.63;6.00;;;19.30;54.70;;;;;;5081335;28;21491;-96
2023/05/06 06:38:50;;;;;;;20.37;5.47;;;19.30;54.70;;;;;;5081035;28;20188;-96
2023/05/06 06:41:33;;;;;;;22.70;5.90;;;19.30;54.70;;;;;;5098393;28;20214;-95
2023/05/06 06:44:07;;;;;;;14.20;4.87;;;19.30;54.80;;;;;;5097028;28;20211;-96
2023/05/06 06:46:58;;;;;;;21.67;5.80;;;19.30;54.80;;;;;;5096807;28;20229;-96
2023/05/06 06:52:45;;;;;;;21.30;5.60;;;19.30;54.70;;;;;;5088805;28;20192;-94
2023/05/06 06:55:13;;;;;;;16.47;5.47;;;19.30;54.80;;;;;;5097665;28;20203;-96
2023/05/06 07:03:52;;;;;;;26.80;6.07;;;19.30;54.80;;;;;;5100010;28;20234;-95
2023/05/06 07:09:18;;;;;;;18.73;5.50;;;19.30;54.80;;;;;;5094715;28;20218;-96
2023/05/06 07:11:50;;;;;;;15.97;5.13;;;19.30;54.80;;;;;;5096856;28;20203;-96
2023/05/06 07:14:26;;;;;;;28.97;6.23;;;19.30;54.80;;;;;;5082878;28;20234;-96
2023/05/06 07:17:06;;;;;;;12.30;4.67;;;19.40;54.90;;;;;;5095873;28;20183;-94
2023/05/06 07:19:33;;;;;;;19.77;5.20;;;19.40;54.90;;;;;;5082490;28;20203;-96
2023/05/06 07:22:05;;;;;;;18.17;5.27;;;19.30;54.80;;;;;;5064056;28;20227;-95
2023/05/06 07:24:42;;;;;;;18.23;4.87;;;19.40;54.80;;;;;;5079737;28;20229;-95
2023/05/06 07:27:12;;;;;;;13.93;4.80;;;19.40;54.80;;;;;;5066111;28;20220;-96
2023/05/06 07:30:08;;;;;;;13.77;5.00;;;19.40;54.80;;;;;;5056289;28;20204;-95
2023/05/06 07:32:35;;;;;;;23.73;5.90;;;19.40;54.90;;;;;;5058517;28;20211;-96
2023/05/06 07:35:06;;;;;;;20.97;5.87;;;19.40;54.80;;;;;;5059572;28;20188;-95
2023/05/06 07:37:33;;;;;;;18.90;5.23;;;19.50;54.90;;;;;;5060253;28;20211;-96
2023/05/06 07:40:00;;;;;;;19.17;5.03;;;19.50;54.90;;;;;;5058458;28;20204;-96
2023/05/06 07:42:27;;;;;;;20.00;5.40;;;19.50;55.00;;;;;;5053489;28;20637;-96
2023/05/06 07:44:57;;;;;;;25.27;5.77;;;19.50;54.90;;;;;;5051798;28;20224;-96
2023/05/06 07:47:35;;;;;;;27.90;5.73;;;19.50;55.00;;;;;;5045520;28;20661;-95
2023/05/06 07:50:03;;;;;;;30.17;6.00;;;19.60;55.00;;;;;;5051380;28;20624;-95
2023/05/06 07:52:31;;;;;;;25.97;6.17;;;19.50;54.90;;;;;;5051429;28;20200;-96
2023/05/06 07:54:58;;;;;;;37.63;6.87;;;19.50;54.90;;;;;;5047894;28;20214;-94
2023/05/06 07:57:33;;;;;;;23.93;5.97;;;19.60;55.00;;;;;;5046906;28;20199;-94
2023/05/06 08:00:00;;;;;;;30.83;6.53;;;19.60;55.00;;;;;;5047905;28;20977;-96
2023/05/06 08:02:30;;;;;;;27.83;5.67;;;19.60;55.00;;;;;;5050241;28;20700;-95
2023/05/06 08:04:57;;;;;;;42.07;7.23;;;19.60;55.00;;;;;;5047846;28;20334;-95
2023/05/06 08:07:24;;;;;;;33.90;6.50;;;19.60;55.00;;;;;;5049589;28;20220;-96
2023/05/06 08:09:55;;;;;;;35.27;6.60;;;19.60;55.00;;;;;;5048337;28;20582;-94
2023/05/06 08:12:22;;;;;;;24.93;5.93;;;19.70;55.10;;;;;;5048838;28;20672;-95
2023/05/06 08:14:49;;;;;;;31.97;6.37;;;19.70;55.10;;;;;;5049310;28;20243;-95
2023/05/06 08:17:18;;;;;;;30.53;6.43;;;19.70;55.10;;;;;;5049013;28;20261;-94
2023/05/06 08:19:46;;;;;;;40.03;7.03;;;19.70;55.10;;;;;;5047849;28;20287;-94
2023/05/06 08:22:19;;;;;;;49.07;7.77;;;19.70;55.10;;;;;;5048612;28;20204;-96
2023/05/06 08:24:46;;;;;;;48.23;7.70;;;19.70;55.10;;;;;;5059065;28;20224;-95
2023/05/06 08:27:13;;;;;;;37.70;6.83;;;19.60;55.00;;;;;;5065669;28;20282;-94
2023/05/06 08:29:40;;;;;;;33.03;6.47;;;19.80;55.20;;;;;;5068224;28;20246;-95
2023/05/06 08:32:09;;;;;;;32.20;6.43;;;19.80;55.20;;;;;;5058104;28;20232;-94
2023/05/06 08:34:39;;;;;;;20.97;5.73;;;19.80;55.80;;;;;;5054583;28;20656;-96
2023/05/06 08:37:09;;;;;;;24.67;5.90;;;19.90;55.30;;;;;;5052186;28;20716;-94
2023/05/06 08:39:42;;;;;;;18.33;5.00;;;19.90;55.30;;;;;;5052385;28;20208;-94
2023/05/06 08:42:11;;;;;;;19.90;4.90;;;19.90;55.30;;;;;;5051503;28;20294;-95
2023/05/06 08:44:38;;;;;;;44.13;7.30;;;19.90;55.30;;;;;;5047481;28;20318;-95
2023/05/06 08:47:06;;;;;;;31.00;6.00;;;19.90;55.30;;;;;;5048667;28;20242;-95
2023/05/06 08:49:33;;;;;;;28.37;6.03;;;19.90;55.30;;;;;;5049521;28;20204;-96
2023/05/06 08:52:03;;;;;;;29.27;5.63;;;20.00;55.40;;;;;;5048905;28;20664;-95
2023/05/06 08:54:35;;;;;;;31.73;6.23;;;20.00;55.40;;;;;;5047972;28;20295;-96
2023/05/06 08:57:05;;;;;;;27.17;5.43;;;20.00;55.50;;;;;;5036365;28;20204;-95
2023/05/06 08:59:33;;;;;;;28.33;6.03;;;20.00;55.50;;;;;;5048421;28;20219;-94
2023/05/06 09:02:01;;;;;;;27.30;5.93;;;20.00;55.40;;;;;;5047965;28;20579;-94
2023/05/06 09:04:29;;;;;;;27.50;6.13;;;20.10;55.60;;;;;;5047526;28;20241;-94
2023/05/06 09:06:58;;;;;;;27.93;6.07;;;20.10;55.60;;;;;;5048009;28;20250;-94
2023/05/06 09:09:25;;;;;;;24.13;5.43;;;20.10;55.60;;;;;;5049198;28;20291;-93
2023/05/06 09:11:56;;;;;;;34.77;6.70;;;20.20;55.60;;;;;;5043436;28;20203;-93
2023/05/06 09:14:23;;;;;;;26.07;6.10;;;20.20;55.60;;;;;;5046789;28;20208;-92
2023/05/06 09:16:52;;;;;;;41.43;6.70;;;20.20;55.60;;;;;;5047940;28;20302;-93
2023/05/06 09:19:20;;;;;;;41.23;6.80;;;20.20;55.70;;;;;;5046507;28;20613;-93
2023/05/06 09:21:49;;;;;;;41.57;7.10;;;20.20;55.70;;;;;;5045282;28;20231;-93
2023/05/06 09:24:16;;;;;;;38.53;6.50;;;20.30;55.80;;;;;;5047399;28;20317;-92
2023/05/06 09:26:47;;;;;;;24.07;5.33;;;20.30;55.80;;;;;;5046722;28;20303;-93
2023/05/06 09:29:15;;;;;;;31.63;6.20;;;20.40;55.90;;;;;;5046649;28;20214;-91
2023/05/06 09:31:43;;;;;;;28.57;6.30;;;20.40;55.90;;;;;;5047749;28;20286;-93
2023/05/06 09:34:11;;;;;;;29.67;6.37;;;20.40;55.90;;;;;;5047559;28;20232;-92
2023/05/06 09:36:38;;;;;;;19.20;5.27;;;20.40;55.90;;;;;;5047737;28;20208;-94
2023/05/06 09:39:05;;;;;;;27.07;5.87;;;20.40;55.90;;;;;;5046445;28;20235;-94
2023/05/06 09:41:32;;;;;;;25.60;5.77;;;20.50;56.00;;;;;;5048987;28;20553;-94
2023/05/06 09:43:59;;;;;;;24.47;5.47;;;20.50;56.00;;;;;;5049288;28;20231;-95
2023/05/06 09:46:31;;;;;;;31.00;6.53;;;20.50;56.00;;;;;;5046778;28;20290;-94
2023/05/06 09:48:59;;;;;;;28.00;6.47;;;20.60;56.00;;;;;;5035292;28;20212;-93
2023/05/06 09:51:27;;;;;;;53.30;8.53;;;20.60;56.00;;;;;;5046647;28;20284;-93
2023/05/06 09:53:56;;;;;;;23.80;6.60;;;20.70;56.10;;;;;;5047194;28;20199;-92
2023/05/06 09:56:24;;;;;;;26.33;5.80;;;20.60;56.00;;;;;;5047401;28;20665;-91
2023/05/06 09:58:54;;;;;;;31.67;6.47;;;20.60;56.00;;;;;;5046609;28;20320;-91
2023/05/06 10:01:21;;;;;;;34.23;7.70;;;20.70;56.10;;;;;;5046719;28;20604;-91
2023/05/06 10:03:53;;;;;;;30.90;7.47;;;20.70;56.20;;;;;;5046681;28;20212;-91
2023/05/06 10:06:23;;;;;;;34.73;7.43;;;20.70;56.20;;;;;;5041798;28;20299;-92
2023/05/06 10:08:50;;;;;;;49.50;8.77;;;20.70;56.20;;;;;;5045881;28;22350;-92
2023/05/06 10:11:19;;;;;;;29.87;7.47;;;20.80;56.30;;;;;;5047632;28;20216;-92
2023/05/06 10:13:47;;;;;;;41.20;8.53;;;20.80;56.30;;;;;;5045718;28;20287;-93
2023/05/06 10:16:15;;;;;;;43.43;8.33;;;20.90;56.40;;;;;;5032435;28;20235;-92
2023/05/06 10:18:43;;;;;;;54.50;8.93;;;20.90;56.40;;;;;;5046789;28;20200;-93
2023/05/06 10:21:17;;;;;;;43.70;8.40;;;20.90;56.40;;;;;;5030202;28;20294;-92
2023/05/06 10:23:49;;;;;;;28.47;7.10;;;21.00;56.40;;;;;;5044155;28;20210;-91
2023/05/06 10:26:18;;;;;;;53.87;9.03;;;21.00;56.40;;;;;;5047172;28;20222;-93
2023/05/06 10:28:48;;;;;;;63.73;9.80;;;21.00;56.40;;;;;;5045367;28;20212;-91
2023/05/06 10:31:15;;;;;;;38.47;7.53;;;21.10;56.50;;;;;;5028014;28;20765;-92
2023/05/06 10:33:47;;;;;;;27.33;6.57;;;21.10;56.50;;;;;;5045304;28;20292;-92
2023/05/06 10:36:19;;;;;;;31.47;6.97;;;21.10;56.50;;;;;;5045736;28;20207;-93
2023/05/06 10:38:51;;;;;;;28.27;6.53;;;21.20;56.60;;;;;;5046209;28;20717;-91
2023/05/06 10:41:20;;;;;;;33.33;7.40;;;21.20;56.60;;;;;;5046028;28;20715;-90
2023/05/06 10:43:48;;;;;;;27.77;6.70;;;21.20;56.60;;;;;;5046952;28;20739;-93
2023/05/06 10:46:16;;;;;;;24.77;6.27;;;21.30;56.70;;;;;;5047727;28;20720;-91
2023/05/06 10:49:17;;;;;;;37.67;7.70;;;21.30;56.70;;;;;;5047086;28;20197;-91
2023/05/06 10:51:46;;;;;;;21.27;5.97;;;21.30;56.70;;;;;;5037714;28;20253;-91
2023/05/06 10:54:22;;;;;;;24.80;6.50;;;21.40;56.80;;;;;;5046229;28;20736;-91
2023/05/06 10:57:07;;;;;;;27.70;6.83;;;21.40;56.80;;;;;;5047111;28;20235;-91
2023/05/06 10:59:34;;;;;;;41.80;8.00;;;21.50;56.80;;;;;;5046882;28;20263;-92
2023/05/06 11:02:09;;;;;;;32.53;6.90;;;21.50;56.80;;;;;;5044773;28;20202;-91
2023/05/06 11:04:36;;;;;;;45.57;8.53;;;21.50;56.80;;;;;;5050117;28;20588;-91
2023/05/06 11:07:12;;;;;;;30.73;6.77;;;21.60;56.90;;;;;;5050129;28;20234;-91
2023/05/06 11:09:56;;;;;;;38.23;7.43;;;21.60;56.90;;;;;;5048897;28;20757;-93
2023/05/06 11:12:43;;;;;;;33.27;7.17;;;21.60;56.90;;;;;;5049866;28;20293;-93
2023/05/06 11:15:24;;;;;;;20.90;5.80;;;21.70;57.00;;;;;;5035243;28;20219;-93
2023/05/06 11:17:54;;;;;;;32.90;6.77;;;21.70;57.00;;;;;;5054864;28;20211;-95
2023/05/06 11:20:22;;;;;;;29.47;6.27;;;21.80;57.00;;;;;;5051029;28;20306;-96
2023/05/06 11:22:51;;;;;;;22.70;5.60;;;21.80;57.00;;;;;;5052586;28;20284;-95
2023/05/06 11:25:45;;;;;;;18.50;5.30;;;21.80;57.00;;;;;;5060449;28;20232;-96
2023/05/06 11:28:14;;;;;;;28.47;6.53;;;21.80;57.10;;;;;;5053291;28;20212;-96
2023/05/06 11:30:53;;;;;;;20.43;5.57;;;21.90;57.00;;;;;;5053839;28;20257;-96
2023/05/06 11:33:27;;;;;;;23.53;5.80;;;21.90;57.00;;;;;;5074538;28;20203;-95
2023/05/06 11:35:55;;;;;;;28.17;6.63;;;21.90;57.00;;;;;;5055360;28;20203;-90
2023/05/06 11:38:23;;;;;;;31.67;6.63;;;21.90;57.10;;;;;;5050732;28;20652;-89
2023/05/06 11:40:50;;;;;;;65.83;9.63;;;22.00;57.30;;;;;;5044105;28;20279;-96
2023/05/06 11:43:17;;;;;;;35.53;7.27;;;22.00;57.20;;;;;;5032258;28;20215;-96
2023/05/06 11:45:45;;;;;;;36.77;6.73;;;22.10;57.30;;;;;;5031297;28;20338;-96
2023/05/06 11:48:13;;;;;;;28.00;6.23;;;22.10;57.30;;;;;;5031877;28;20224;-96
2023/05/06 11:50:44;;;;;;;34.60;7.27;;;22.10;57.30;;;;;;5030783;28;20208;-95
2023/05/06 11:53:12;;;;;;;43.57;7.20;;;22.20;57.40;;;;;;5040616;28;20206;-96
2023/05/06 11:55:40;;;;;;;47.87;7.93;;;22.20;57.30;;;;;;5047285;28;20653;-96
2023/05/06 11:58:12;;;;;;;37.40;7.07;;;22.20;57.30;;;;;;5050371;28;20252;-96
2023/05/06 12:00:46;;;;;;;32.70;6.43;;;22.30;57.40;;;;;;5049976;28;20254;-96
2023/05/06 12:03:14;;;;;;;35.77;6.57;;;22.30;57.40;;;;;;5051005;28;20212;-95
2023/05/06 12:05:42;;;;;;;36.77;6.40;;;22.30;57.30;;;;;;5050886;28;20258;-96
2023/05/06 12:08:11;;;;;;;41.90;7.20;;;22.30;57.20;;;;;;5069155;28;20184;-95
2023/05/06 12:10:45;;;;;;;41.00;7.17;;;22.30;57.20;;;;;;5067559;28;20185;-96
2023/05/06 12:13:13;;;;;;;27.93;5.93;;;22.40;57.30;;;;;;5050875;28;20974;-96
2023/05/06 12:15:41;;;;;;;35.87;6.60;;;22.40;57.20;;;;;;5061817;28;20305;-96
2023/05/06 12:18:11;;;;;;;21.60;5.40;;;22.50;57.20;;;;;;5059657;28;20251;-95
2023/05/06 12:20:46;;;;;;;23.93;5.73;;;22.50;57.20;;;;;;5055471;28;20593;-96
2023/05/06 12:23:20;;;;;;;18.67;5.27;;;22.50;57.20;;;;;;5054608;28;20211;-96
2023/05/06 12:26:01;;;;;;;23.40;5.30;;;22.50;57.20;;;;;;5052337;28;20231;-96
2023/05/06 12:28:28;;;;;;;23.27;4.77;;;22.50;57.20;;;;;;5048146;28;20226;-96
2023/05/06 12:30:56;;;;;;;34.83;6.07;;;22.50;57.10;;;;;;5050272;28;20726;-96
2023/05/06 12:33:24;;;;;;;26.67;5.57;;;22.50;57.10;;;;;;5051100;28;20639;-96
2023/05/06 12:35:53;;;;;;;35.30;5.93;;;22.60;57.20;;;;;;5050197;28;20210;-96
2023/05/06 12:38:20;;;;;;;28.73;6.07;;;22.60;57.20;;;;;;5050556;28;20294;-96
2023/05/06 12:40:55;;;;;;;29.17;5.97;;;22.60;57.20;;;;;;5050312;28;20586;-96
2023/05/06 12:43:29;;;;;;;23.77;4.90;;;22.60;57.20;;;;;;5048228;28;20210;-96
2023/05/06 12:46:05;;;;;;;28.87;5.80;;;22.60;57.20;;;;;;5050327;28;20325;-96
2023/05/06 12:48:32;;;;;;;31.67;6.03;;;22.60;57.10;;;;;;5045908;28;20196;-96
2023/05/06 12:51:14;;;;;;;24.13;5.17;;;22.60;57.10;;;;;;5047411;28;20279;-96
2023/05/06 12:53:41;;;;;;;19.17;4.93;;;22.60;57.10;;;;;;5049711;28;20205;-96
2023/05/06 12:56:14;;;;;;;28.93;5.70;;;22.60;57.00;;;;;;5048976;28;20254;-96
2023/05/06 12:58:43;;;;;;;23.23;5.97;;;22.60;57.10;;;;;;5052776;28;20265;-96
2023/05/06 13:01:10;;;;;;;46.50;7.23;;;22.70;57.10;;;;;;5049406;28;20250;-95
2023/05/06 13:03:39;;;;;;;28.07;5.40;;;22.70;57.10;;;;;;5048089;28;20232;-96
2023/05/06 13:06:08;;;;;;;22.23;5.13;;;22.70;57.70;;;;;;5054559;28;20224;-96
2023/05/06 13:08:38;;;;;;;25.40;5.40;;;22.70;57.10;;;;;;5061045;28;20203;-96
2023/05/06 13:11:05;;;;;;;27.27;5.93;;;22.60;57.10;;;;;;5060762;28;20870;-96
2023/05/06 13:13:34;;;;;;;20.43;5.43;;;22.70;57.10;;;;;;5050181;28;20200;-96
2023/05/06 13:16:01;;;;;;;26.53;5.50;;;22.70;57.10;;;;;;5049605;28;20215;-96
2023/05/06 13:18:29;;;;;;;31.00;6.20;;;22.70;57.10;;;;;;5048984;28;20204;-96
2023/05/06 13:20:59;;;;;;;25.07;5.20;;;22.70;57.10;;;;;;5050028;28;20204;-96
2023/05/06 13:23:26;;;;;;;20.47;4.93;;;22.70;57.20;;;;;;5049623;28;20207;-96
2023/05/06 13:25:53;;;;;;;26.20;5.73;;;22.70;57.70;;;;;;5046918;28;20301;-96
2023/05/06 13:28:20;;;;;;;28.03;5.50;;;22.70;57.10;;;;;;5049095;28;20711;-96
2023/05/06 13:30:48;;;;;;;25.13;5.73;;;22.70;57.10;;;;;;5048982;28;20596;-96
2023/05/06 13:33:15;;;;;;;21.07;4.97;;;22.70;57.10;;;;;;5047966;28;20857;-96
2023/05/06 13:35:42;;;;;;;24.13;5.07;;;22.80;57.20;;;;;;5047924;28;20208;-96
2023/05/06 13:38:09;;;;;;;30.37;6.23;;;22.80;57.20;;;;;;5047095;28;20311;-96
2023/05/06 13:40:36;;;;;;;22.23;5.00;;;22.70;57.10;;;;;;5049497;28;20208;-96
2023/05/06 13:43:03;;;;;;;29.97;5.93;;;22.80;57.20;;;;;;5050112;28;20203;-96
2023/05/06 13:45:33;;;;;;;26.50;5.83;;;22.80;57.20;;;;;;5045975;28;20229;-96
2023/05/06 13:48:02;;;;;;;25.40;5.70;;;22.70;57.10;;;;;;5030159;28;20243;-96